Terminal Aerodrome Forecast
Issued by NWS Mt. Holly, NJ

Home | Current Version | Previous Version | Text Only | Print | Product List | Glossary On
Versions: 1 2 3 4 5 6 7 8 9 10 11 12 13 14 15 16 17 18 19 20 21 22 23 24 25 26 27 28 29 30 31 32 33 34 35 36
000
FTUS41 KPHI 260500
TAFPHL
TAF
KPHL 260526Z 2606/2712 05011KT P6SM OVC040
     FM261200 06012G20KT 4SM -SN OVC015
     FM261500 05014G24KT 2SM -SN OVC009
     FM262100 04016G26KT 1SM -SN OVC007
     FM270000 02016G26KT 1/2SM SN OVC004=

USA.gov is the U.S. government's official web portal to all federal, state and local government web resources and services.